TFM - Tactical Decision Aid
ID: Runway Winds: CIG/VIS Threshold:

KCLT - Charlotte/Douglas In, NC, US

Updated at: 1829 UTC 19 Aug 2019
Latest TAF at: 1738 UTC 19 Aug 2019

TAF Board

Time1752Z 19/19Z 19/20Z 19/21Z 19/22Z 19/23Z 20/00Z 20/01Z 20/02Z 20/03Z 20/04Z 20/05Z 20/06Z 20/07Z>>
Type OBS PRVL
  [TEMP]  
PRVL
  [TEMP]  
PRVL
  [TEMP]  
PRVL PRVL PRVL PRVL PRVL PRVL PRVL PRVL PRVL PRVL
VIS 10 >6
  [4]  
>6
  [4]  
>6
  [4]  
>6 >6 >6 >6 >6 >6 >6 >6 >6 >6
CIG 250 --
  [25]  
--
  [25]  
--
  [25]  
50 50 50 50 50 50 50 50 50 50
Cover BKN SCT
  [OVC]  
SCT
  [OVC]  
SCT
  [OVC]  
BKN BKN BKN BKN BKN BKN BKN BKN BKN BKN
FltCat VFR VFR
  [MVFR]  
VFR
  [MVFR]  
VFR
  [MVFR]  
VFR VFR VFR VFR VFR VFR VFR VFR VFR VFR
WX -- VCSH
  [TSRA]  
VCSH
  [TSRA]  
VCSH
  [TSRA]  
TSRA TSRA TSRA TSRA VCSH VCSH VCSH VCSH VCSH VCSH
WDir 250 200
[200]
200
[200]
200
[200]
180 180 180 180 210 210 210 210 210 210
WSpd 3 6
  [6]  
6
  [6]  
6
  [6]  
6 6 6 6 3 3 3 3 3 3
WGst -- --
  [--]  
--
  [--]  
--
  [--]  
-- -- -- -- -- -- -- -- -- --

TDA Impact Legend

  None Marginal Slight Moderate High
Visibility (sm) >5 3≤X≤5 1≤X<3 0.5≤X<1 <0.5
Ceiling (100 ft) >30 10≤X≤30 4≤X<10 2≤X<4 <2
Wind Speed (kt) <15 15≤X<25 25≤X<30 ≥30
Wind Gust (kt) <15 15≤X<25 25≤X<35 ≥35
Weather No Wx Reported VCTS -TS,-FZRA TS,FZRA +TS,+FZRA
TAF
KCLT 191738Z 1918/2024 20006KT P6SM VCSH SCT050 SCT250
  TEMPO 1919/1922 4SM TSRA OVC025CB
  FM192200 18006KT P6SM TSRA SCT025CB BKN050
  FM200200 21003KT P6SM VCSH BKN050 BKN100


METAR
KCLT 191752Z 25003KT 10SM SCT045TCU SCT200 BKN250 34/20 A3007 RMK AO2 LTG DSNT SW SLP173 CB DSNT SE-S TCU NE-SE-S T03390200 10339 20244 58008
KCLT 191652Z 20006KT 10SM FEW040 SCT250 33/23 A3009 RMK AO2 SLP179 TCU DSNT W-N T03280228
KCLT 191552Z VRB04KT 10SM FEW030 FEW250 31/22 A3010 RMK AO2 SLP183 T03110222

Radar Display
Forecast Discussion